sensor_id;sensor_type;location;lat;lon;timestamp;pressure;altitude;pressure_sealevel;temperature;humidity
48622;BME280;34421;48.944;9.460;2023-12-20T00:01:15;98522.75;;;7.43;69.89
48622;BME280;34421;48.944;9.460;2023-12-20T00:03:40;98526.47;;;7.49;70.56
48622;BME280;34421;48.944;9.460;2023-12-20T00:06:06;98519.34;;;7.49;70.41
48622;BME280;34421;48.944;9.460;2023-12-20T00:08:31;98517.97;;;7.53;70.20
48622;BME280;34421;48.944;9.460;2023-12-20T00:10:56;98511.25;;;7.58;69.74
48622;BME280;34421;48.944;9.460;2023-12-20T00:13:22;98516.19;;;7.61;69.71
48622;BME280;34421;48.944;9.460;2023-12-20T00:15:47;98511.69;;;7.61;70.26
48622;BME280;34421;48.944;9.460;2023-12-20T00:18:12;98515.19;;;7.62;70.03
48622;BME280;34421;48.944;9.460;2023-12-20T00:20:38;98508.06;;;7.62;70.18
48622;BME280;34421;48.944;9.460;2023-12-20T00:23:03;98506.59;;;7.60;70.59
48622;BME280;34421;48.944;9.460;2023-12-20T00:25:28;98503.97;;;7.60;70.16
48622;BME280;34421;48.944;9.460;2023-12-20T00:27:54;98503.97;;;7.60;69.75
48622;BME280;34421;48.944;9.460;2023-12-20T00:30:19;98490.72;;;7.60;69.61
48622;BME280;34421;48.944;9.460;2023-12-20T00:32:44;98488.22;;;7.58;69.71
48622;BME280;34421;48.944;9.460;2023-12-20T00:35:13;98484.53;;;7.52;69.49
48622;BME280;34421;48.944;9.460;2023-12-20T00:37:38;98492.84;;;7.49;70.16
48622;BME280;34421;48.944;9.460;2023-12-20T00:40:04;98482.03;;;7.44;69.75
48622;BME280;34421;48.944;9.460;2023-12-20T00:42:30;98488.69;;;7.40;70.10
48622;BME280;34421;48.944;9.460;2023-12-20T00:44:55;98478.28;;;7.39;70.08
48622;BME280;34421;48.944;9.460;2023-12-20T00:47:20;98481.75;;;7.39;70.20
48622;BME280;34421;48.944;9.460;2023-12-20T00:49:47;98486.41;;;7.37;70.05
48622;BME280;34421;48.944;9.460;2023-12-20T00:52:12;98490.09;;;7.36;70.53
48622;BME280;34421;48.944;9.460;2023-12-20T00:54:37;98491.09;;;7.35;70.39
48622;BME280;34421;48.944;9.460;2023-12-20T00:57:03;98477.00;;;7.35;70.90
48622;BME280;34421;48.944;9.460;2023-12-20T00:59:28;98476.03;;;7.36;70.68
48622;BME280;34421;48.944;9.460;2023-12-20T01:01:53;98463.41;;;7.38;70.76
48622;BME280;34421;48.944;9.460;2023-12-20T01:04:19;98486.78;;;7.34;70.55
48622;BME280;34421;48.944;9.460;2023-12-20T01:06:44;98485.34;;;7.31;71.15
48622;BME280;34421;48.944;9.460;2023-12-20T01:09:09;98493.28;;;7.31;71.12
48622;BME280;34421;48.944;9.460;2023-12-20T01:11:35;98491.00;;;7.28;70.71
48622;BME280;34421;48.944;9.460;2023-12-20T01:14:00;98493.06;;;7.26;71.54
48622;BME280;34421;48.944;9.460;2023-12-20T01:16:25;98487.31;;;7.23;71.39
48622;BME280;34421;48.944;9.460;2023-12-20T01:18:50;98488.31;;;7.22;71.04
48622;BME280;34421;48.944;9.460;2023-12-20T01:21:16;98495.25;;;7.23;71.38
48622;BME280;34421;48.944;9.460;2023-12-20T01:23:41;98487.13;;;7.24;72.14
48622;BME280;34421;48.944;9.460;2023-12-20T01:26:06;98500.34;;;7.24;72.07
48622;BME280;34421;48.944;9.460;2023-12-20T01:28:32;98493.00;;;7.20;72.04
48622;BME280;34421;48.944;9.460;2023-12-20T01:30:57;98492.34;;;7.18;72.83
48622;BME280;34421;48.944;9.460;2023-12-20T01:33:23;98496.44;;;7.20;72.48
48622;BME280;34421;48.944;9.460;2023-12-20T01:35:48;98493.59;;;7.22;72.76
48622;BME280;34421;48.944;9.460;2023-12-20T01:38:13;98492.78;;;7.21;72.55
48622;BME280;34421;48.944;9.460;2023-12-20T01:40:39;98502.19;;;7.24;72.34
48622;BME280;34421;48.944;9.460;2023-12-20T01:43:08;98498.34;;;7.26;72.78
48622;BME280;34421;48.944;9.460;2023-12-20T01:45:34;98498.53;;;7.25;72.87
48622;BME280;34421;48.944;9.460;2023-12-20T01:48:00;98501.53;;;7.22;72.80
48622;BME280;34421;48.944;9.460;2023-12-20T01:50:28;98512.72;;;7.17;72.76
48622;BME280;34421;48.944;9.460;2023-12-20T01:52:55;98504.56;;;7.19;73.20
48622;BME280;34421;48.944;9.460;2023-12-20T01:55:23;98494.19;;;7.17;73.23
48622;BME280;34421;48.944;9.460;2023-12-20T01:57:48;98496.44;;;7.20;73.14
48622;BME280;34421;48.944;9.460;2023-12-20T02:00:14;98484.84;;;7.21;72.98
48622;BME280;34421;48.944;9.460;2023-12-20T02:02:40;98496.25;;;7.22;73.24
48622;BME280;34421;48.944;9.460;2023-12-20T02:05:06;98496.88;;;7.24;73.74
48622;BME280;34421;48.944;9.460;2023-12-20T02:07:32;98500.19;;;7.26;73.20
48622;BME280;34421;48.944;9.460;2023-12-20T02:09:59;98499.59;;;7.30;73.07
48622;BME280;34421;48.944;9.460;2023-12-20T02:12:24;98494.50;;;7.29;73.64
48622;BME280;34421;48.944;9.460;2023-12-20T02:14:50;98486.72;;;7.27;73.81
48622;BME280;34421;48.944;9.460;2023-12-20T02:17:16;98484.72;;;7.29;73.96
48622;BME280;34421;48.944;9.460;2023-12-20T02:19:41;98474.75;;;7.31;74.30
48622;BME280;34421;48.944;9.460;2023-12-20T02:22:10;98485.34;;;7.31;74.33
48622;BME280;34421;48.944;9.460;2023-12-20T02:24:36;98475.75;;;7.30;74.01
48622;BME280;34421;48.944;9.460;2023-12-20T02:27:02;98495.75;;;7.33;74.20
48622;BME280;34421;48.944;9.460;2023-12-20T02:29:28;98487.25;;;7.38;74.60
48622;BME280;34421;48.944;9.460;2023-12-20T02:31:53;98485.81;;;7.35;74.38
48622;BME280;34421;48.944;9.460;2023-12-20T02:34:19;98488.06;;;7.38;74.62
48622;BME280;34421;48.944;9.460;2023-12-20T02:36:44;98481.38;;;7.42;74.51
48622;BME280;34421;48.944;9.460;2023-12-20T02:39:09;98478.34;;;7.45;74.42
48622;BME280;34421;48.944;9.460;2023-12-20T02:41:34;98495.69;;;7.48;74.64
48622;BME280;34421;48.944;9.460;2023-12-20T02:44:01;98496.34;;;7.50;74.24
48622;BME280;34421;48.944;9.460;2023-12-20T02:46:27;98495.13;;;7.52;74.63
48622;BME280;34421;48.944;9.460;2023-12-20T02:48:52;98492.13;;;7.56;74.39
48622;BME280;34421;48.944;9.460;2023-12-20T02:51:18;98483.78;;;7.59;74.97
48622;BME280;34421;48.944;9.460;2023-12-20T02:53:43;98484.59;;;7.59;74.60
48622;BME280;34421;48.944;9.460;2023-12-20T02:56:08;98492.34;;;7.61;74.72
48622;BME280;34421;48.944;9.460;2023-12-20T02:58:34;98489.91;;;7.59;74.67
48622;BME280;34421;48.944;9.460;2023-12-20T03:00:59;98489.69;;;7.61;74.95
48622;BME280;34421;48.944;9.460;2023-12-20T03:03:24;98492.34;;;7.61;74.98
48622;BME280;34421;48.944;9.460;2023-12-20T03:05:50;98495.63;;;7.63;74.98
48622;BME280;34421;48.944;9.460;2023-12-20T03:08:15;98492.16;;;7.62;75.28
48622;BME280;34421;48.944;9.460;2023-12-20T03:10:40;98494.81;;;7.62;75.32
48622;BME280;34421;48.944;9.460;2023-12-20T03:13:06;98502.56;;;7.64;75.29
48622;BME280;34421;48.944;9.460;2023-12-20T03:15:31;98498.28;;;7.63;75.02
48622;BME280;34421;48.944;9.460;2023-12-20T03:17:56;98504.59;;;7.62;75.72
48622;BME280;34421;48.944;9.460;2023-12-20T03:20:24;98503.31;;;7.58;75.45
48622;BME280;34421;48.944;9.460;2023-12-20T03:22:51;98506.56;;;7.53;75.77
48622;BME280;34421;48.944;9.460;2023-12-20T03:25:16;98504.47;;;7.48;76.05
48622;BME280;34421;48.944;9.460;2023-12-20T03:27:41;98504.47;;;7.48;76.00
48622;BME280;34421;48.944;9.460;2023-12-20T03:30:07;98508.13;;;7.47;75.71
48622;BME280;34421;48.944;9.460;2023-12-20T03:32:32;98517.44;;;7.43;76.28
48622;BME280;34421;48.944;9.460;2023-12-20T03:34:58;98514.19;;;7.41;76.37
48622;BME280;34421;48.944;9.460;2023-12-20T03:37:23;98503.16;;;7.38;76.99
48622;BME280;34421;48.944;9.460;2023-12-20T03:39:48;98507.59;;;7.37;76.45
48622;BME280;34421;48.944;9.460;2023-12-20T03:42:13;98514.09;;;7.35;76.57
48622;BME280;34421;48.944;9.460;2023-12-20T03:44:39;98514.94;;;7.35;76.59
48622;BME280;34421;48.944;9.460;2023-12-20T03:47:05;98509.63;;;7.35;77.09
48622;BME280;34421;48.944;9.460;2023-12-20T03:49:30;98507.22;;;7.40;76.74
48622;BME280;34421;48.944;9.460;2023-12-20T03:51:56;98502.78;;;7.41;76.35
48622;BME280;34421;48.944;9.460;2023-12-20T03:54:21;98517.22;;;7.38;76.92
48622;BME280;34421;48.944;9.460;2023-12-20T03:56:46;98515.31;;;7.32;77.07
48622;BME280;34421;48.944;9.460;2023-12-20T03:59:12;98512.84;;;7.30;77.03
48622;BME280;34421;48.944;9.460;2023-12-20T04:01:43;98508.75;;;7.28;76.77
48622;BME280;34421;48.944;9.460;2023-12-20T04:04:08;98507.09;;;7.27;77.15
48622;BME280;34421;48.944;9.460;2023-12-20T04:06:33;98512.03;;;7.30;77.24
48622;BME280;34421;48.944;9.460;2023-12-20T04:08:59;98509.56;;;7.28;77.13
48622;BME280;34421;48.944;9.460;2023-12-20T04:11:24;98515.69;;;7.29;76.97
48622;BME280;34421;48.944;9.460;2023-12-20T04:13:50;98513.22;;;7.27;77.17
48622;BME280;34421;48.944;9.460;2023-12-20T04:16:15;98520.47;;;7.19;77.43
48622;BME280;34421;48.944;9.460;2023-12-20T04:18:41;98511.53;;;7.20;77.65
48622;BME280;34421;48.944;9.460;2023-12-20T04:21:06;98515.06;;;7.27;77.21
48622;BME280;34421;48.944;9.460;2023-12-20T04:23:32;98513.66;;;7.31;77.48
48622;BME280;34421;48.944;9.460;2023-12-20T04:25:57;98521.00;;;7.29;77.12
48622;BME280;34421;48.944;9.460;2023-12-20T04:28:23;98516.25;;;7.24;77.18
48622;BME280;34421;48.944;9.460;2023-12-20T04:30:48;98514.63;;;7.23;76.90
48622;BME280;34421;48.944;9.460;2023-12-20T04:33:14;98533.97;;;7.24;77.20
48622;BME280;34421;48.944;9.460;2023-12-20T04:35:39;98548.59;;;7.20;77.26
48622;BME280;34421;48.944;9.460;2023-12-20T04:38:06;98545.63;;;7.08;77.75
48622;BME280;34421;48.944;9.460;2023-12-20T04:40:31;98535.84;;;7.08;77.79
48622;BME280;34421;48.944;9.460;2023-12-20T04:42:57;98544.75;;;7.07;77.79
48622;BME280;34421;48.944;9.460;2023-12-20T04:45:22;98565.94;;;7.07;77.82
48622;BME280;34421;48.944;9.460;2023-12-20T04:47:49;98552.97;;;7.13;77.55
48622;BME280;34421;48.944;9.460;2023-12-20T04:50:15;98552.16;;;7.12;77.92
48622;BME280;34421;48.944;9.460;2023-12-20T04:52:40;98545.31;;;7.18;77.61
48622;BME280;34421;48.944;9.460;2023-12-20T04:55:06;98543.91;;;7.22;77.27
48622;BME280;34421;48.944;9.460;2023-12-20T04:57:32;98563.63;;;7.19;77.34
48622;BME280;34421;48.944;9.460;2023-12-20T04:59:57;98555.16;;;7.24;77.42
48622;BME280;34421;48.944;9.460;2023-12-20T05:02:22;98553.97;;;7.26;77.71
48622;BME280;34421;48.944;9.460;2023-12-20T05:04:48;98554.41;;;7.30;77.42
48622;BME280;34421;48.944;9.460;2023-12-20T05:07:13;98561.97;;;7.33;77.16
48622;BME280;34421;48.944;9.460;2023-12-20T05:09:39;98554.84;;;7.34;77.34
48622;BME280;34421;48.944;9.460;2023-12-20T05:12:04;98547.16;;;7.39;77.00
48622;BME280;34421;48.944;9.460;2023-12-20T05:14:30;98551.88;;;7.43;77.07
48622;BME280;34421;48.944;9.460;2023-12-20T05:16:55;98559.66;;;7.45;76.98
48622;BME280;34421;48.944;9.460;2023-12-20T05:19:21;98562.84;;;7.40;76.96
48622;BME280;34421;48.944;9.460;2023-12-20T05:21:47;98575.13;;;7.41;77.25
48622;BME280;34421;48.944;9.460;2023-12-20T05:24:12;98579.41;;;7.42;77.29
48622;BME280;34421;48.944;9.460;2023-12-20T05:26:37;98568.78;;;7.42;77.07
48622;BME280;34421;48.944;9.460;2023-12-20T05:29:03;98572.25;;;7.43;77.17
48622;BME280;34421;48.944;9.460;2023-12-20T05:31:28;98573.72;;;7.45;77.10
48622;BME280;34421;48.944;9.460;2023-12-20T05:33:53;98572.53;;;7.48;77.22
48622;BME280;34421;48.944;9.460;2023-12-20T05:36:19;98582.31;;;7.47;77.18
48622;BME280;34421;48.944;9.460;2023-12-20T05:38:44;98583.56;;;7.51;77.37
48622;BME280;34421;48.944;9.460;2023-12-20T05:41:10;98583.94;;;7.48;76.89
48622;BME280;34421;48.944;9.460;2023-12-20T05:43:35;98585.94;;;7.46;77.67
48622;BME280;34421;48.944;9.460;2023-12-20T05:46:00;98589.25;;;7.48;77.06
48622;BME280;34421;48.944;9.460;2023-12-20T05:48:26;98590.88;;;7.49;77.96
48622;BME280;34421;48.944;9.460;2023-12-20T05:50:51;98597.44;;;7.53;77.61
48622;BME280;34421;48.944;9.460;2023-12-20T05:53:16;98598.47;;;7.52;77.73
48622;BME280;34421;48.944;9.460;2023-12-20T05:55:42;98600.75;;;7.56;77.45
48622;BME280;34421;48.944;9.460;2023-12-20T05:58:07;98609.31;;;7.58;77.87
48622;BME280;34421;48.944;9.460;2023-12-20T06:00:32;98612.59;;;7.60;77.54
48622;BME280;34421;48.944;9.460;2023-12-20T06:02:57;98624.66;;;7.62;77.56
48622;BME280;34421;48.944;9.460;2023-12-20T06:05:23;98624.81;;;7.61;78.00
48622;BME280;34421;48.944;9.460;2023-12-20T06:07:48;98628.06;;;7.56;78.19
48622;BME280;34421;48.944;9.460;2023-12-20T06:10:15;98620.09;;;7.56;78.07
48622;BME280;34421;48.944;9.460;2023-12-20T06:12:41;98628.88;;;7.57;78.06
48622;BME280;34421;48.944;9.460;2023-12-20T06:15:07;98632.16;;;7.59;78.29
48622;BME280;34421;48.944;9.460;2023-12-20T06:17:32;98623.84;;;7.62;78.00
48622;BME280;34421;48.944;9.460;2023-12-20T06:19:57;98626.50;;;7.62;78.14
48622;BME280;34421;48.944;9.460;2023-12-20T06:22:23;98622.81;;;7.63;78.39
48622;BME280;34421;48.944;9.460;2023-12-20T06:24:48;98622.19;;;7.61;78.33
48622;BME280;34421;48.944;9.460;2023-12-20T06:27:13;98625.47;;;7.63;78.54
48622;BME280;34421;48.944;9.460;2023-12-20T06:29:39;98636.88;;;7.63;78.37
48622;BME280;34421;48.944;9.460;2023-12-20T06:32:07;98633.44;;;7.63;78.49
48622;BME280;34421;48.944;9.460;2023-12-20T06:34:32;98624.81;;;7.61;78.50
48622;BME280;34421;48.944;9.460;2023-12-20T06:36:57;98634.19;;;7.57;78.87
48622;BME280;34421;48.944;9.460;2023-12-20T06:39:22;98633.34;;;7.56;78.67
48622;BME280;34421;48.944;9.460;2023-12-20T06:41:48;98637.47;;;7.59;78.88
48622;BME280;34421;48.944;9.460;2023-12-20T06:44:13;98634.34;;;7.55;79.19
48622;BME280;34421;48.944;9.460;2023-12-20T06:46:38;98637.00;;;7.55;79.38
48622;BME280;34421;48.944;9.460;2023-12-20T06:49:04;98636.00;;;7.56;79.63
48622;BME280;34421;48.944;9.460;2023-12-20T06:51:29;98637.84;;;7.56;79.46
48622;BME280;34421;48.944;9.460;2023-12-20T06:53:56;98637.00;;;7.55;79.36
48622;BME280;34421;48.944;9.460;2023-12-20T06:56:21;98645.59;;;7.57;79.00
48622;BME280;34421;48.944;9.460;2023-12-20T06:58:46;98649.88;;;7.58;79.31
48622;BME280;34421;48.944;9.460;2023-12-20T07:01:13;98657.00;;;7.58;78.97
48622;BME280;34421;48.944;9.460;2023-12-20T07:03:38;98662.31;;;7.58;79.44
48622;BME280;34421;48.944;9.460;2023-12-20T07:06:04;98660.47;;;7.58;79.69
48622;BME280;34421;48.944;9.460;2023-12-20T07:08:30;98657.66;;;7.60;79.13
48622;BME280;34421;48.944;9.460;2023-12-20T07:10:55;98661.13;;;7.60;79.41
48622;BME280;34421;48.944;9.460;2023-12-20T07:13:20;98659.66;;;7.58;79.62
48622;BME280;34421;48.944;9.460;2023-12-20T07:15:48;98652.16;;;7.61;79.66
48622;BME280;34421;48.944;9.460;2023-12-20T07:18:14;98664.50;;;7.54;79.72
48622;BME280;34421;48.944;9.460;2023-12-20T07:20:39;98669.44;;;7.57;79.78
48622;BME280;34421;48.944;9.460;2023-12-20T07:23:04;98672.53;;;7.61;80.01
48622;BME280;34421;48.944;9.460;2023-12-20T07:25:29;98688.44;;;7.61;79.80
48622;BME280;34421;48.944;9.460;2023-12-20T07:27:58;98690.56;;;7.50;79.23
48622;BME280;34421;48.944;9.460;2023-12-20T07:30:23;98698.13;;;7.53;80.14
48622;BME280;34421;48.944;9.460;2023-12-20T07:32:49;98690.72;;;7.49;79.99
48622;BME280;34421;48.944;9.460;2023-12-20T07:35:15;98693.59;;;7.47;80.13
48622;BME280;34421;48.944;9.460;2023-12-20T07:37:41;98702.28;;;7.41;79.97
48622;BME280;34421;48.944;9.460;2023-12-20T07:40:06;98707.56;;;7.41;80.42
48622;BME280;34421;48.944;9.460;2023-12-20T07:42:32;98707.19;;;7.44;80.49
48622;BME280;34421;48.944;9.460;2023-12-20T07:44:58;98706.38;;;7.44;80.87
48622;BME280;34421;48.944;9.460;2023-12-20T07:47:23;98713.41;;;7.37;80.53
48622;BME280;34421;48.944;9.460;2023-12-20T07:49:50;98713.41;;;7.37;81.01
48622;BME280;34421;48.944;9.460;2023-12-20T07:52:17;98715.41;;;7.35;80.63
48622;BME280;34421;48.944;9.460;2023-12-20T07:54:43;98707.94;;;7.38;80.60
48622;BME280;34421;48.944;9.460;2023-12-20T07:57:08;98716.06;;;7.37;80.63
48622;BME280;34421;48.944;9.460;2023-12-20T07:59:34;98719.16;;;7.40;80.40
48622;BME280;34421;48.944;9.460;2023-12-20T08:01:59;98714.31;;;7.44;80.41
48622;BME280;34421;48.944;9.460;2023-12-20T08:04:24;98719.69;;;7.50;80.20
48622;BME280;34421;48.944;9.460;2023-12-20T08:06:50;98725.28;;;7.56;80.14
48622;BME280;34421;48.944;9.460;2023-12-20T08:09:15;98717.13;;;7.57;79.40
48622;BME280;34421;48.944;9.460;2023-12-20T08:11:48;98722.63;;;7.56;79.62
48622;BME280;34421;48.944;9.460;2023-12-20T08:14:14;98716.47;;;7.55;79.38
48622;BME280;34421;48.944;9.460;2023-12-20T08:16:39;98724.25;;;7.57;80.19
48622;BME280;34421;48.944;9.460;2023-12-20T08:19:05;98724.00;;;7.51;79.61
48622;BME280;34421;48.944;9.460;2023-12-20T08:21:30;98740.34;;;7.55;79.43
48622;BME280;34421;48.944;9.460;2023-12-20T08:23:56;98735.31;;;7.60;79.05
48622;BME280;34421;48.944;9.460;2023-12-20T08:26:21;98733.75;;;7.66;79.09
48622;BME280;34421;48.944;9.460;2023-12-20T08:28:48;98743.72;;;7.64;79.15
48622;BME280;34421;48.944;9.460;2023-12-20T08:31:18;98746.19;;;7.65;78.68
48622;BME280;34421;48.944;9.460;2023-12-20T08:33:44;98748.75;;;7.73;78.51
48622;BME280;34421;48.944;9.460;2023-12-20T08:36:10;98755.47;;;7.76;78.86
48622;BME280;34421;48.944;9.460;2023-12-20T08:38:36;98766.19;;;7.83;78.24
48622;BME280;34421;48.944;9.460;2023-12-20T08:41:01;98763.34;;;7.84;78.38
48622;BME280;34421;48.944;9.460;2023-12-20T08:43:28;98763.03;;;7.94;78.29
48622;BME280;34421;48.944;9.460;2023-12-20T08:45:54;98764.75;;;8.02;77.59
48622;BME280;34421;48.944;9.460;2023-12-20T08:48:19;98766.22;;;8.04;76.57
48622;BME280;34421;48.944;9.460;2023-12-20T08:50:44;98770.19;;;8.15;76.63
48622;BME280;34421;48.944;9.460;2023-12-20T08:53:10;98768.97;;;8.32;76.00
48622;BME280;34421;48.944;9.460;2023-12-20T08:55:35;98751.56;;;8.44;76.12
48622;BME280;34421;48.944;9.460;2023-12-20T08:58:00;98755.44;;;8.42;75.87
48622;BME280;34421;48.944;9.460;2023-12-20T09:00:26;98753.59;;;8.42;74.82
48622;BME280;34421;48.944;9.460;2023-12-20T09:02:54;98748.38;;;8.34;74.86
48622;BME280;34421;48.944;9.460;2023-12-20T09:05:20;98748.75;;;8.31;75.15
48622;BME280;34421;48.944;9.460;2023-12-20T09:07:45;98742.59;;;8.24;74.80
48622;BME280;34421;48.944;9.460;2023-12-20T09:10:10;98751.41;;;8.10;74.66
48622;BME280;34421;48.944;9.460;2023-12-20T09:12:36;98751.34;;;8.03;74.89
48622;BME280;34421;48.944;9.460;2023-12-20T09:15:04;98754.53;;;7.98;74.87
48622;BME280;34421;48.944;9.460;2023-12-20T09:17:30;98744.47;;;7.94;75.08
48622;BME280;34421;48.944;9.460;2023-12-20T09:19:56;98745.94;;;7.96;75.67
48622;BME280;34421;48.944;9.460;2023-12-20T09:22:21;98752.38;;;8.09;75.02
48622;BME280;34421;48.944;9.460;2023-12-20T09:24:46;98747.19;;;9.08;72.78
48622;BME280;34421;48.944;9.460;2023-12-20T09:27:11;98751.34;;;11.86;65.97
48622;BME280;34421;48.944;9.460;2023-12-20T09:29:37;98740.19;;;14.68;59.24
48622;BME280;34421;48.944;9.460;2023-12-20T09:32:02;98744.66;;;17.17;52.85
48622;BME280;34421;48.944;9.460;2023-12-20T09:34:27;98744.91;;;19.06;48.27
48622;BME280;34421;48.944;9.460;2023-12-20T09:36:53;98741.28;;;20.64;43.77
48622;BME280;34421;48.944;9.460;2023-12-20T09:39:19;98754.13;;;21.90;40.48
48622;BME280;34421;48.944;9.460;2023-12-20T09:41:51;98748.66;;;21.95;39.65
48622;BME280;34421;48.944;9.460;2023-12-20T09:44:21;98746.13;;;21.38;39.44
48622;BME280;34421;48.944;9.460;2023-12-20T09:46:49;98752.13;;;21.05;39.19
48622;BME280;34421;48.944;9.460;2023-12-20T09:49:17;98757.53;;;20.74;37.50
48622;BME280;34421;48.944;9.460;2023-12-20T09:51:46;98753.22;;;20.68;37.31
48622;BME280;34421;48.944;9.460;2023-12-20T09:54:15;98749.97;;;20.66;38.00
48622;BME280;34421;48.944;9.460;2023-12-20T09:56:40;98759.72;;;20.82;36.71
48622;BME280;34421;48.944;9.460;2023-12-20T09:59:06;98757.75;;;20.47;36.86
48622;BME280;34421;48.944;9.460;2023-12-20T10:01:35;98754.38;;;20.04;37.65
48622;BME280;34421;48.944;9.460;2023-12-20T10:04:05;98751.44;;;20.06;37.64
48622;BME280;34421;48.944;9.460;2023-12-20T10:06:36;98745.91;;;20.74;35.82
48622;BME280;34421;48.944;9.460;2023-12-20T10:09:01;98747.44;;;21.67;35.54
48622;BME280;34421;48.944;9.460;2023-12-20T10:11:27;98754.94;;;21.85;33.82
48622;BME280;34421;48.944;9.460;2023-12-20T10:13:59;98749.34;;;21.56;33.44
48622;BME280;34421;48.944;9.460;2023-12-20T10:16:26;98761.28;;;21.34;33.25
48622;BME280;34421;48.944;9.460;2023-12-20T10:18:53;98758.88;;;21.33;33.75
48622;BME280;34421;48.944;9.460;2023-12-20T10:21:18;98748.88;;;20.57;34.44
48622;BME280;34421;48.944;9.460;2023-12-20T10:23:43;98750.97;;;19.24;35.74
48622;BME280;34421;48.944;9.460;2023-12-20T10:26:09;98755.50;;;18.27;37.25
48622;BME280;34421;48.944;9.460;2023-12-20T10:28:34;98746.84;;;17.20;38.55
48622;BME280;34421;48.944;9.460;2023-12-20T10:31:00;98753.22;;;16.80;39.42
48622;BME280;34421;48.944;9.460;2023-12-20T10:33:27;98738.13;;;16.79;39.18
48622;BME280;34421;48.944;9.460;2023-12-20T10:35:57;98741.25;;;17.04;39.37
48622;BME280;34421;48.944;9.460;2023-12-20T10:38:22;98730.31;;;16.94;39.07
48622;BME280;34421;48.944;9.460;2023-12-20T10:40:48;98734.16;;;16.53;39.61
48622;BME280;34421;48.944;9.460;2023-12-20T10:43:14;98732.03;;;16.38;40.15
48622;BME280;34421;48.944;9.460;2023-12-20T10:45:41;98737.41;;;15.57;41.58
48622;BME280;34421;48.944;9.460;2023-12-20T10:48:07;98729.50;;;16.94;40.61
48622;BME280;34421;48.944;9.460;2023-12-20T10:50:33;98722.16;;;19.34;36.66
48622;BME280;34421;48.944;9.460;2023-12-20T10:53:01;98724.00;;;21.01;34.38
48622;BME280;34421;48.944;9.460;2023-12-20T10:55:27;98723.94;;;22.17;31.99
48622;BME280;34421;48.944;9.460;2023-12-20T10:58:09;98717.69;;;23.24;30.21
48622;BME280;34421;48.944;9.460;2023-12-20T11:00:39;98713.94;;;23.92;29.46
48622;BME280;34421;48.944;9.460;2023-12-20T11:03:09;98710.75;;;24.28;28.14
48622;BME280;34421;48.944;9.460;2023-12-20T11:05:43;98704.69;;;24.12;28.88
48622;BME280;34421;48.944;9.460;2023-12-20T11:08:35;98703.75;;;24.41;28.05
48622;BME280;34421;48.944;9.460;2023-12-20T11:11:07;98708.56;;;23.63;27.86
48622;BME280;34421;48.944;9.460;2023-12-20T11:13:53;98700.28;;;22.67;29.92
48622;BME280;34421;48.944;9.460;2023-12-20T11:16:19;98708.53;;;21.16;30.32
48622;BME280;34421;48.944;9.460;2023-12-20T11:18:45;98706.69;;;19.20;32.92
48622;BME280;34421;48.944;9.460;2023-12-20T11:21:11;98696.88;;;18.12;34.14
48622;BME280;34421;48.944;9.460;2023-12-20T11:23:36;98695.44;;;17.38;35.43
48622;BME280;34421;48.944;9.460;2023-12-20T11:26:02;98700.78;;;17.77;35.64
48622;BME280;34421;48.944;9.460;2023-12-20T11:28:28;98701.97;;;18.35;34.11
48622;BME280;34421;48.944;9.460;2023-12-20T11:30:56;98682.69;;;18.81;34.38
48622;BME280;34421;48.944;9.460;2023-12-20T11:33:35;98709.84;;;17.71;35.58
48622;BME280;34421;48.944;9.460;2023-12-20T11:36:01;98700.09;;;16.87;35.57
48622;BME280;34421;48.944;9.460;2023-12-20T11:38:27;98710.63;;;15.98;37.42
48622;BME280;34421;48.944;9.460;2023-12-20T11:40:54;98709.66;;;15.40;38.04
48622;BME280;34421;48.944;9.460;2023-12-20T11:43:31;98701.69;;;14.51;40.03
48622;BME280;34421;48.944;9.460;2023-12-20T11:46:03;98716.31;;;13.76;41.23
48622;BME280;34421;48.944;9.460;2023-12-20T11:48:30;98721.84;;;13.19;41.67
48622;BME280;34421;48.944;9.460;2023-12-20T11:50:56;98711.94;;;12.51;43.46
48622;BME280;34421;48.944;9.460;2023-12-20T11:53:21;98722.13;;;11.98;44.59
48622;BME280;34421;48.944;9.460;2023-12-20T11:55:50;98713.91;;;11.48;45.63
48622;BME280;34421;48.944;9.460;2023-12-20T11:58:15;98708.47;;;10.96;47.46
48622;BME280;34421;48.944;9.460;2023-12-20T12:00:44;98709.50;;;10.62;48.76
48622;BME280;34421;48.944;9.460;2023-12-20T12:03:09;98705.16;;;10.21;49.46
48622;BME280;34421;48.944;9.460;2023-12-20T12:05:35;98702.13;;;10.31;48.44
48622;BME280;34421;48.944;9.460;2023-12-20T12:08:01;98694.97;;;10.38;48.50
48622;BME280;34421;48.944;9.460;2023-12-20T12:10:27;98698.84;;;10.29;49.73
48622;BME280;34421;48.944;9.460;2023-12-20T12:12:53;98689.78;;;10.16;48.45
48622;BME280;34421;48.944;9.460;2023-12-20T12:15:19;98690.00;;;10.21;49.51
48622;BME280;34421;48.944;9.460;2023-12-20T12:17:52;98673.81;;;10.23;49.26
48622;BME280;34421;48.944;9.460;2023-12-20T12:20:19;98676.28;;;10.24;49.38
48622;BME280;34421;48.944;9.460;2023-12-20T12:22:45;98673.41;;;10.26;48.86
48622;BME280;34421;48.944;9.460;2023-12-20T12:25:13;98673.88;;;10.36;49.82
48622;BME280;34421;48.944;9.460;2023-12-20T12:27:43;98668.97;;;10.33;48.98
48622;BME280;34421;48.944;9.460;2023-12-20T12:30:09;98673.00;;;10.22;49.42
48622;BME280;34421;48.944;9.460;2023-12-20T12:32:36;98676.69;;;10.21;49.59
48622;BME280;34421;48.944;9.460;2023-12-20T12:35:04;98677.53;;;10.22;49.86
48622;BME280;34421;48.944;9.460;2023-12-20T12:37:33;98688.97;;;10.22;50.29
48622;BME280;34421;48.944;9.460;2023-12-20T12:39:59;98686.78;;;10.33;48.92
48622;BME280;34421;48.944;9.460;2023-12-20T12:42:24;98683.31;;;10.45;50.36
48622;BME280;34421;48.944;9.460;2023-12-20T12:44:53;98679.00;;;10.51;49.19
48622;BME280;34421;48.944;9.460;2023-12-20T12:47:19;98676.13;;;10.39;50.40
48622;BME280;34421;48.944;9.460;2023-12-20T12:49:44;98663.25;;;10.30;50.26
48622;BME280;34421;48.944;9.460;2023-12-20T12:52:09;98674.63;;;10.17;51.00
48622;BME280;34421;48.944;9.460;2023-12-20T12:54:35;98675.03;;;10.07;50.69
48622;BME280;34421;48.944;9.460;2023-12-20T12:57:01;98684.22;;;9.98;50.60
48622;BME280;34421;48.944;9.460;2023-12-20T12:59:27;98674.81;;;9.95;51.06
48622;BME280;34421;48.944;9.460;2023-12-20T13:01:52;98680.75;;;9.97;51.75